Time;durP1;ratioP1;P1;durP2;ratioP2;P2;SDS_P1;SDS_P2;PMS_P1;PMS_P2;Temp;Humidity;BMP_temperature;BMP_pressure;BME280_temperature;BME280_humidity;BME280_pressure;Samples;Min_cycle;Max_cycle;Signal;HPM_P1;HPM_P2
2022/05/07 00:01:42;;;;;;;;;19.80;19.40;;;;;11.58;57.94;100586.31;5118859;28;8889;-62
2022/05/07 00:04:10;;;;;;;;;30.00;27.20;;;;;11.56;57.97;100594.41;5118628;28;8828;-63
2022/05/07 00:06:37;;;;;;;;;23.20;21.60;;;;;11.53;58.00;100588.47;5118356;28;8971;-63
2022/05/07 00:09:05;;;;;;;;;27.80;27.00;;;;;11.49;57.82;100582.50;5118476;28;8947;-63
2022/05/07 00:11:33;;;;;;;;;21.40;19.80;;;;;11.44;57.82;100583.81;5117900;28;8839;-62
2022/05/07 00:14:01;;;;;;;;;26.60;24.80;;;;;11.40;57.78;100588.50;5116518;28;8830;-67
2022/05/07 00:19:15;;;;;;;;;26.20;22.20;;;;;11.32;58.14;100576.69;5117217;28;8845;-62
2022/05/07 00:21:42;;;;;;;;;22.00;21.60;;;;;11.29;58.26;100577.75;5137082;27;8819;-62
2022/05/07 00:24:10;;;;;;;;;25.00;21.60;;;;;11.27;58.06;100582.34;5138849;27;8987;-63
2022/05/07 00:26:38;;;;;;;;;21.60;19.40;;;;;11.24;58.26;100573.72;5138694;27;8838;-63
2022/05/07 00:29:06;;;;;;;;;29.60;26.60;;;;;11.19;58.63;100574.06;5138682;27;8858;-63
2022/05/07 00:31:34;;;;;;;;;20.00;18.00;;;;;11.16;58.42;100576.09;5138813;27;8857;-63
2022/05/07 00:34:01;;;;;;;;;25.80;24.20;;;;;11.14;58.32;100581.50;5138614;27;8918;-63
2022/05/07 00:36:30;;;;;;;;;21.20;17.20;;;;;11.12;58.50;100577.25;5137681;27;8830;-63
2022/05/07 00:38:58;;;;;;;;;23.40;23.40;;;;;11.09;58.47;100569.50;5136828;27;8842;-63
2022/05/07 00:41:26;;;;;;;;;25.20;21.80;;;;;11.06;58.53;100570.56;5136921;27;8949;-63
2022/05/07 00:43:54;;;;;;;;;27.80;24.00;;;;;11.03;58.90;100569.91;5138330;27;8830;-64
2022/05/07 00:46:22;;;;;;;;;25.80;22.20;;;;;11.01;58.90;100572.69;5138749;27;8826;-64
2022/05/07 00:48:49;;;;;;;;;25.60;25.20;;;;;11.02;58.73;100576.22;5139343;27;8823;-63
2022/05/07 00:51:34;;;;;;;;;29.20;22.00;;;;;11.02;58.74;100581.53;5136071;27;8815;-63
2022/05/07 00:54:02;;;;;;;;;18.80;18.20;;;;;11.04;58.88;100580.47;5137624;27;8998;-63
2022/05/07 00:56:30;;;;;;;;;22.20;19.00;;;;;11.03;58.62;100573.44;5137704;27;8839;-63
2022/05/07 00:58:57;;;;;;;;;18.80;18.20;;;;;11.03;58.51;100576.13;5137801;27;8868;-64
2022/05/07 01:01:27;;;;;;;;;26.20;24.60;;;;;11.04;58.67;100568.97;5137694;27;8815;-63
2022/05/07 01:03:54;;;;;;;;;23.00;21.60;;;;;11.01;58.71;100575.34;5137218;27;8827;-63
2022/05/07 01:06:22;;;;;;;;;23.80;22.80;;;;;10.98;58.84;100570.25;5138312;27;8819;-64
2022/05/07 01:08:50;;;;;;;;;24.20;23.00;;;;;10.98;58.95;100572.06;5137846;27;8843;-64
2022/05/07 01:11:18;;;;;;;;;13.00;12.40;;;;;10.94;58.88;100568.75;5138475;27;8830;-64
2022/05/07 01:13:46;;;;;;;;;29.40;27.60;;;;;10.91;59.03;100563.66;5137610;27;8841;-63
2022/05/07 01:16:13;;;;;;;;;27.40;27.00;;;;;10.89;58.71;100572.72;5137983;27;8844;-63
2022/05/07 01:18:41;;;;;;;;;24.20;23.60;;;;;10.86;59.12;100567.63;5137148;27;8839;-63
2022/05/07 01:21:09;;;;;;;;;23.40;23.00;;;;;10.85;58.85;100565.91;5120549;27;8809;-63
2022/05/07 01:23:37;;;;;;;;;23.40;19.60;;;;;10.82;58.86;100558.97;5115240;28;8861;-63
2022/05/07 01:26:04;;;;;;;;;31.40;29.20;;;;;10.79;59.01;100558.34;5115288;28;8813;-64
2022/05/07 01:28:32;;;;;;;;;19.60;18.40;;;;;10.74;59.53;100561.34;5115514;28;8833;-63
2022/05/07 01:31:00;;;;;;;;;28.60;28.40;;;;;10.70;59.25;100549.19;5115529;28;8859;-64
2022/05/07 01:33:28;;;;;;;;;27.80;24.80;;;;;10.66;59.32;100553.03;5115431;28;8833;-64
2022/05/07 01:35:55;;;;;;;;;19.60;17.60;;;;;10.62;59.75;100554.19;5115384;28;8841;-63
2022/05/07 01:38:23;;;;;;;;;24.00;19.40;;;;;10.63;59.29;100552.41;5115908;27;8817;-64
2022/05/07 01:40:51;;;;;;;;;24.00;21.20;;;;;10.64;59.95;100549.63;5114980;28;8845;-64
2022/05/07 01:43:19;;;;;;;;;20.40;17.20;;;;;10.65;59.08;100550.47;5114965;28;8917;-63
2022/05/07 01:45:47;;;;;;;;;24.00;21.80;;;;;10.68;59.78;100556.44;5116400;28;8859;-63
2022/05/07 01:48:14;;;;;;;;;26.80;23.80;;;;;10.71;59.29;100547.38;5117168;28;8833;-64
2022/05/07 01:50:42;;;;;;;;;26.80;25.40;;;;;10.72;59.04;100552.63;5129603;27;8947;-63
2022/05/07 01:53:09;;;;;;;;;25.40;24.80;;;;;10.74;59.14;100555.16;5136556;27;8869;-63
2022/05/07 01:55:37;;;;;;;;;22.80;22.60;;;;;10.74;59.42;100548.03;5136246;27;8835;-64
2022/05/07 01:58:05;;;;;;;;;23.20;21.60;;;;;10.74;58.95;100548.03;5137288;27;8915;-64
2022/05/07 02:00:33;;;;;;;;;29.80;27.60;;;;;10.77;58.93;100542.47;5137163;27;8850;-64
2022/05/07 02:03:01;;;;;;;;;23.60;22.20;;;;;10.79;59.40;100548.56;5136842;27;8838;-64
2022/05/07 02:05:28;;;;;;;;;22.80;19.40;;;;;10.79;59.11;100542.38;5137177;27;8851;-64
2022/05/07 02:07:56;;;;;;;;;18.40;18.00;;;;;10.78;59.18;100540.66;5137214;27;8819;-63
2022/05/07 02:10:24;;;;;;;;;22.20;20.60;;;;;10.77;59.14;100542.47;5136645;27;8927;-63
2022/05/07 02:12:52;;;;;;;;;26.60;25.20;;;;;10.76;59.38;100538.09;5136584;27;8823;-63
2022/05/07 02:15:19;;;;;;;;;22.00;22.00;;;;;10.73;59.25;100537.47;5136572;27;9492;-63
2022/05/07 02:17:47;;;;;;;;;19.60;17.40;;;;;10.70;59.44;100535.03;5136654;27;8850;-63
2022/05/07 02:20:15;;;;;;;;;25.00;21.00;;;;;10.66;59.40;100538.84;5127714;27;8821;-63
2022/05/07 02:22:44;;;;;;;;;29.20;27.00;;;;;10.61;59.66;100539.19;5115993;28;8857;-63
2022/05/07 02:25:13;;;;;;;;;24.00;21.80;;;;;10.59;59.64;100534.91;5115748;28;8809;-63
2022/05/07 02:27:42;;;;;;;;;23.20;22.20;;;;;10.55;59.84;100542.25;5116080;28;8824;-66
2022/05/07 02:30:10;;;;;;;;;24.20;21.00;;;;;10.53;59.91;100530.88;5115576;28;8975;-63
2022/05/07 02:32:38;;;;;;;;;26.20;23.80;;;;;10.49;59.96;100534.72;5116098;28;8840;-63
2022/05/07 02:35:05;;;;;;;;;21.40;20.20;;;;;10.46;59.99;100529.59;5115529;28;8845;-63
2022/05/07 02:37:33;;;;;;;;;18.40;18.00;;;;;10.40;60.18;100524.69;5115225;28;9503;-64
2022/05/07 02:40:01;;;;;;;;;21.00;17.20;;;;;10.36;60.36;100525.03;5115920;28;8839;-63
2022/05/07 02:42:36;;;;;;;;;14.20;13.80;;;;;10.32;59.81;100536.84;5115524;28;8829;-64
2022/05/07 02:45:04;;;;;;;;;19.80;17.20;;;;;10.25;60.32;100530.25;5115363;28;8813;-63
2022/05/07 02:47:32;;;;;;;;;14.40;13.00;;;;;10.16;60.77;100526.41;5115847;28;8932;-63
2022/05/07 02:50:00;;;;;;;;;27.60;24.80;;;;;10.12;60.85;100540.88;5121730;27;8811;-63
2022/05/07 02:52:28;;;;;;;;;18.80;16.80;;;;;10.10;60.71;100531.28;5136258;27;8854;-63
2022/05/07 02:54:56;;;;;;;;;21.40;20.60;;;;;10.08;60.64;100531.41;5136265;27;8884;-63
2022/05/07 02:57:24;;;;;;;;;24.20;22.00;;;;;10.08;60.56;100528.72;5136511;27;9481;-63
2022/05/07 02:59:52;;;;;;;;;26.40;25.20;;;;;10.09;60.52;100530.44;5136383;27;8961;-63
2022/05/07 03:02:20;;;;;;;;;23.60;23.00;;;;;10.08;60.46;100534.06;5136709;27;8969;-63
2022/05/07 03:04:48;;;;;;;;;23.20;21.00;;;;;10.09;60.53;100537.59;5136198;27;8846;-63
2022/05/07 03:07:15;;;;;;;;;31.00;24.40;;;;;10.08;60.75;100530.56;5136610;27;8853;-63
2022/05/07 03:09:43;;;;;;;;;19.40;18.20;;;;;10.06;60.33;100535.09;5136617;27;9476;-63
2022/05/07 03:12:11;;;;;;;;;22.80;20.60;;;;;10.05;61.05;100534.28;5135975;27;8823;-63
2022/05/07 03:14:39;;;;;;;;;21.40;21.20;;;;;10.04;60.69;100537.91;5136306;27;8861;-63
2022/05/07 03:17:07;;;;;;;;;24.20;20.60;;;;;10.05;60.65;100536.06;5136610;27;8834;-63
2022/05/07 03:19:35;;;;;;;;;20.00;17.80;;;;;10.06;60.32;100535.09;5135680;27;9479;-63
2022/05/07 03:22:02;;;;;;;;;28.00;26.20;;;;;10.06;60.55;100535.09;5136809;27;8861;-63
2022/05/07 03:24:30;;;;;;;;;19.80;18.60;;;;;10.06;60.81;100532.44;5136017;27;8870;-63
2022/05/07 03:26:58;;;;;;;;;18.20;18.00;;;;;10.05;60.60;100539.59;5137394;27;8864;-63
2022/05/07 03:29:25;;;;;;;;;19.00;18.40;;;;;10.04;60.28;100531.72;5139724;27;9067;-63
2022/05/07 03:31:54;;;;;;;;;21.40;19.60;;;;;10.02;60.74;100536.25;5140064;27;8961;-63
2022/05/07 03:34:21;;;;;;;;;22.00;20.60;;;;;10.00;60.57;100531.03;5139890;27;9476;-63
2022/05/07 03:36:49;;;;;;;;;20.20;18.80;;;;;9.97;60.62;100533.91;5139547;27;8838;-63
2022/05/07 03:39:17;;;;;;;;;27.60;25.80;;;;;9.92;60.76;100535.16;5140053;27;8848;-63
2022/05/07 03:41:45;;;;;;;;;26.80;23.60;;;;;9.87;61.13;100534.63;5140126;27;8818;-63
2022/05/07 03:44:12;;;;;;;;;17.40;16.60;;;;;9.82;60.78;100532.28;5139998;27;8915;-63
2022/05/07 03:46:40;;;;;;;;;22.40;21.00;;;;;9.78;61.34;100529.94;5139748;27;8835;-68
2022/05/07 03:49:09;;;;;;;;;14.20;11.60;;;;;9.73;61.62;100540.84;5138077;27;9554;-63
2022/05/07 03:54:19;;;;;;;;;19.80;16.00;;;;;9.68;61.41;100542.13;5118694;28;8854;-63
2022/05/07 03:56:47;;;;;;;;;25.20;24.00;;;;;9.67;61.52;100538.63;5119120;28;8833;-63
2022/05/07 03:59:15;;;;;;;;;24.80;22.20;;;;;9.67;61.39;100532.44;5118575;28;8817;-64
2022/05/07 04:01:43;;;;;;;;;28.40;25.00;;;;;9.68;61.41;100536.81;5118739;28;8833;-63
2022/05/07 04:04:11;;;;;;;;;30.80;30.00;;;;;9.67;61.45;100533.31;5118528;28;8963;-63
2022/05/07 04:06:38;;;;;;;;;23.60;21.40;;;;;9.69;61.31;100536.72;5118822;28;8868;-63
2022/05/07 04:09:06;;;;;;;;;24.80;23.00;;;;;9.71;61.13;100536.63;5119225;28;8826;-63
2022/05/07 04:11:34;;;;;;;;;27.00;24.80;;;;;9.70;61.20;100533.09;5118576;28;8863;-63
2022/05/07 04:14:02;;;;;;;;;22.80;21.00;;;;;9.72;61.37;100536.50;5116966;28;8848;-63
2022/05/07 04:16:29;;;;;;;;;27.00;23.20;;;;;9.74;60.63;100531.06;5117699;28;8842;-64
2022/05/07 04:19:01;;;;;;;;;22.60;19.00;;;;;9.79;60.98;100537.78;5120651;27;8833;-64
2022/05/07 04:21:28;;;;;;;;;25.40;23.60;;;;;9.83;61.05;100527.78;5137382;27;8851;-64
2022/05/07 04:23:56;;;;;;;;;25.00;23.60;;;;;9.88;61.03;100533.66;5137430;27;8936;-63
2022/05/07 04:26:24;;;;;;;;;24.60;22.80;;;;;9.95;60.94;100537.63;5137656;27;8822;-63
2022/05/07 04:28:51;;;;;;;;;31.60;28.60;;;;;9.99;60.69;100534.66;5137524;27;8851;-64
2022/05/07 04:31:19;;;;;;;;;23.60;21.00;;;;;9.99;60.95;100545.28;5137288;27;8822;-64
2022/05/07 04:33:50;;;;;;;;;19.20;18.00;;;;;9.98;60.71;100534.75;5137537;27;8830;-64
2022/05/07 04:36:17;;;;;;;;;19.80;18.00;;;;;9.98;60.30;100545.38;5138361;27;8835;-64
2022/05/07 04:38:45;;;;;;;;;24.80;22.00;;;;;9.98;60.80;100543.59;5138820;27;8854;-64
2022/05/07 04:41:13;;;;;;;;;20.00;20.00;;;;;10.01;60.83;100537.22;5138228;27;9488;-63
2022/05/07 04:43:41;;;;;;;;;23.40;20.40;;;;;10.07;60.74;100542.13;5138586;27;8895;-63
2022/05/07 04:46:09;;;;;;;;;27.40;24.80;;;;;10.15;60.55;100540.66;5138515;27;8858;-64
2022/05/07 04:48:36;;;;;;;;;24.80;24.40;;;;;10.25;60.02;100541.72;5138018;27;8861;-63
2022/05/07 04:51:04;;;;;;;;;27.00;24.20;;;;;10.36;60.35;100539.19;5118176;27;9525;-64
2022/05/07 04:53:53;;;;;;;;;27.60;24.00;;;;;10.50;59.98;100540.88;5117911;28;8841;-63
2022/05/07 04:56:22;;;;;;;;;22.00;20.80;;;;;10.61;59.60;100531.19;5117495;28;8871;-64
2022/05/07 04:58:50;;;;;;;;;30.80;27.80;;;;;10.72;59.28;100535.75;5117836;28;8925;-64
2022/05/07 05:01:18;;;;;;;;;18.20;16.80;;;;;10.82;59.32;100537.66;5117381;28;8829;-63
2022/05/07 05:03:46;;;;;;;;;16.40;15.40;;;;;10.96;58.81;100536.69;5117103;28;9502;-64
2022/05/07 05:06:13;;;;;;;;;24.40;21.80;;;;;11.08;58.93;100541.13;5117771;28;8845;-64
2022/05/07 05:08:41;;;;;;;;;22.80;22.40;;;;;11.19;58.56;100542.06;5117310;28;8967;-64
2022/05/07 05:11:10;;;;;;;;;26.20;21.80;;;;;11.31;58.77;100532.31;5117132;28;8933;-63
2022/05/07 05:13:38;;;;;;;;;20.50;17.00;;;;;11.40;58.65;100540.50;5117557;28;8969;-64
2022/05/07 05:16:05;;;;;;;;;22.00;19.50;;;;;11.53;58.35;100537.78;5115202;28;8841;-63
2022/05/07 05:18:33;;;;;;;;;24.50;23.00;;;;;11.65;58.10;100543.09;5117018;27;8859;-64
2022/05/07 05:21:01;;;;;;;;;22.00;19.00;;;;;11.72;58.11;100536.31;5137578;27;8969;-63
2022/05/07 05:23:29;;;;;;;;;19.75;19.25;;;;;11.80;58.35;100541.94;5137574;27;8847;-64
2022/05/07 05:25:57;;;;;;;;;21.50;19.50;;;;;11.90;57.66;100544.78;5137794;27;8829;-63
2022/05/07 05:28:24;;;;;;;;;23.00;21.00;;;;;11.98;57.61;100543.22;5137383;27;8842;-64
2022/05/07 05:30:59;;;;;;;;;15.00;13.75;;;;;12.11;57.45;100549.31;5137359;27;8933;-63
2022/05/07 05:33:26;;;;;;;;;26.75;24.75;;;;;12.21;57.59;100542.31;5137563;27;8834;-63
2022/05/07 05:35:54;;;;;;;;;19.50;19.00;;;;;12.30;57.05;100545.13;5137443;27;8839;-64
2022/05/07 05:38:22;;;;;;;;;18.75;18.00;;;;;12.37;56.83;100541.00;5137261;27;8831;-64
2022/05/07 05:40:49;;;;;;;;;22.00;20.75;;;;;12.45;57.59;100543.09;5137194;27;8862;-63
2022/05/07 05:43:18;;;;;;;;;18.50;16.00;;;;;12.54;56.72;100556.56;5136219;27;8973;-63
2022/05/07 05:45:46;;;;;;;;;21.25;19.25;;;;;12.62;57.26;100550.66;5135341;27;8827;-64
2022/05/07 05:48:15;;;;;;;;;17.50;16.00;;;;;12.69;56.79;100549.19;5135683;27;8853;-63
2022/05/07 05:50:43;;;;;;;;;19.25;19.25;;;;;12.77;57.14;100544.94;5128666;27;8834;-63
2022/05/07 05:53:10;;;;;;;;;16.50;16.50;;;;;12.84;57.11;100545.31;5134694;27;8842;-63
2022/05/07 05:55:38;;;;;;;;;19.50;17.25;;;;;12.90;57.02;100547.50;5136267;27;8843;-63
2022/05/07 05:58:06;;;;;;;;;17.00;15.75;;;;;12.92;56.54;100549.06;5136223;27;8839;-63
2022/05/07 06:00:34;;;;;;;;;16.75;15.25;;;;;12.98;56.71;100551.28;5136021;27;8840;-63
2022/05/07 06:03:01;;;;;;;;;24.50;22.50;;;;;13.07;56.60;100552.41;5135812;27;8843;-63
2022/05/07 06:05:29;;;;;;;;;20.50;17.75;;;;;13.16;56.42;100557.00;5134720;27;8853;-63
2022/05/07 06:07:56;;;;;;;;;17.25;16.50;;;;;13.23;56.42;100555.53;5134858;27;8840;-63
2022/05/07 06:10:25;;;;;;;;;15.25;12.25;;;;;13.32;56.56;100552.97;5134639;27;8969;-64
2022/05/07 06:12:52;;;;;;;;;21.00;19.00;;;;;13.43;56.60;100546.75;5134655;27;8846;-64
2022/05/07 06:15:20;;;;;;;;;20.00;18.50;;;;;13.54;56.27;100546.72;5135137;27;8854;-64
2022/05/07 06:17:47;;;;;;;;;27.25;22.50;;;;;13.65;56.29;100543.97;5136095;27;8815;-63
2022/05/07 06:20:16;;;;;;;;;16.75;16.75;;;;;13.77;55.94;100551.00;5123923;27;8818;-64
2022/05/07 06:22:43;;;;;;;;;25.50;24.50;;;;;13.90;55.94;100549.84;5114250;28;8849;-64
2022/05/07 06:27:56;;;;;;;;;18.00;17.25;;;;;14.21;55.46;100542.81;5116067;28;8921;-64
2022/05/07 06:30:25;;;;;;;;;21.75;21.00;;;;;14.31;54.94;100549.94;5115788;28;8817;-64
2022/05/07 06:32:53;;;;;;;;;23.00;21.00;;;;;14.44;54.67;100552.41;5116623;28;8913;-64
2022/05/07 06:35:21;;;;;;;;;17.50;14.25;;;;;14.54;54.99;100553.31;5116146;28;8841;-64
2022/05/07 06:37:48;;;;;;;;;18.50;18.00;;;;;14.63;55.00;100544.50;5115734;28;8834;-64
2022/05/07 06:40:16;;;;;;;;;23.25;22.25;;;;;14.70;54.85;100546.50;5116060;28;8841;-64
2022/05/07 06:42:45;;;;;;;;;20.25;18.50;;;;;14.79;54.71;100544.88;5115818;28;9026;-63
2022/05/07 06:45:13;;;;;;;;;21.75;19.75;;;;;14.90;55.02;100542.94;5115365;28;8848;-65
2022/05/07 06:47:40;;;;;;;;;23.00;20.50;;;;;15.07;54.11;100546.78;5115434;28;8857;-64
2022/05/07 06:50:10;;;;;;;;;17.00;16.00;;;;;15.23;53.88;100545.31;5131390;27;8819;-64
2022/05/07 06:52:38;;;;;;;;;29.50;26.00;;;;;15.43;53.79;100541.72;5136296;27;8842;-64
2022/05/07 06:55:06;;;;;;;;;24.75;22.00;;;;;15.60;53.14;100543.72;5136395;27;8933;-64
2022/05/07 06:57:33;;;;;;;;;23.75;23.00;;;;;15.75;52.97;100542.34;5136401;27;8850;-64
2022/05/07 07:00:01;;;;;;;;;18.00;14.50;;;;;15.92;53.10;100544.31;5134515;27;8854;-64
2022/05/07 07:02:30;;;;;;;;;25.00;23.00;;;;;16.08;52.97;100546.47;5140012;27;8831;-66
2022/05/07 07:05:00;;;;;;;;;25.75;23.75;;;;;16.20;52.77;100549.69;5140249;27;8969;-64
2022/05/07 07:07:27;;;;;;;;;31.00;23.75;;;;;16.35;52.45;100548.25;5139498;27;8949;-64
2022/05/07 07:09:56;;;;;;;;;23.75;22.25;;;;;16.51;52.58;100548.56;5139937;27;8834;-63
2022/05/07 07:12:24;;;;;;;;;29.00;24.75;;;;;16.71;52.23;100560.94;5139733;27;8839;-65
2022/05/07 07:15:01;;;;;;;;;21.50;18.00;;;;;16.89;51.53;100553.81;5139127;27;8923;-65
2022/05/07 07:17:30;;;;;;;;;24.00;22.50;;;;;16.99;51.83;100554.63;5139578;27;8855;-65
2022/05/07 07:19:57;;;;;;;;;27.75;24.50;;;;;17.08;52.12;100548.34;5124709;27;8817;-64
2022/05/07 07:22:26;;;;;;;;;20.50;18.00;;;;;17.14;51.69;100560.34;5118655;28;8976;-64
2022/05/07 07:24:53;;;;;;;;;23.00;19.25;;;;;17.15;51.70;100560.22;5118935;28;8845;-64
2022/05/07 07:27:26;;;;;;;;;16.50;16.50;;;;;17.21;51.79;100559.63;5119274;28;8837;-64
2022/05/07 07:29:54;;;;;;;;;24.25;23.50;;;;;17.33;51.90;100552.22;5119162;28;8849;-65
2022/05/07 07:32:23;;;;;;;;;23.50;22.50;;;;;17.41;51.51;100553.19;5118542;28;8849;-64
2022/05/07 07:34:50;;;;;;;;;23.50;21.50;;;;;17.49;51.62;100553.28;5118424;28;8855;-65
2022/05/07 07:37:18;;;;;;;;;24.50;24.50;;;;;17.57;51.91;100548.00;5118923;28;8833;-64
2022/05/07 07:39:46;;;;;;;;;29.25;27.25;;;;;17.66;51.82;100554.28;5118716;28;8848;-64
2022/05/07 07:42:16;;;;;;;;;31.50;29.00;;;;;17.68;51.91;100555.00;5117609;28;8836;-64
2022/05/07 07:47:56;;;;;;;;;26.00;22.00;;;;;17.71;52.11;100547.47;5116972;28;8926;-64
2022/05/07 07:50:29;;;;;;;;;30.75;29.50;;;;;17.96;51.10;100546.72;5075051;28;8846;-64
2022/05/07 07:52:57;;;;;;;;;30.75;27.25;;;;;18.13;50.98;100548.53;5107781;28;8864;-64
2022/05/07 07:55:25;;;;;;;;;32.50;29.50;;;;;18.28;50.86;100551.56;5117356;28;8924;-68
2022/05/07 07:57:52;;;;;;;;;28.75;26.50;;;;;18.45;50.99;100551.53;5117944;28;8848;-64
2022/05/07 08:00:20;;;;;;;;;36.50;32.00;;;;;18.61;50.69;100548.13;5118197;28;8829;-64
2022/05/07 08:02:48;;;;;;;;;23.00;22.00;;;;;18.74;50.76;100543.97;5117726;28;8825;-64
2022/05/07 08:05:17;;;;;;;;;29.50;28.00;;;;;18.86;50.12;100539.16;5118509;28;8852;-64
2022/05/07 08:13:16;;;;;;;;;25.00;23.00;;;;;19.22;50.05;100544.28;5117337;28;8821;-64
2022/05/07 08:15:44;;;;;;;;;22.00;22.00;;;;;19.28;49.97;100542.78;5133674;27;8831;-65
2022/05/07 08:18:12;;;;;;;;;25.00;22.00;;;;;19.33;50.00;100541.28;5137860;27;8851;-65
2022/05/07 08:20:41;;;;;;;;;22.25;19.50;;;;;19.40;49.39;100545.03;5138233;27;8849;-64
2022/05/07 08:23:09;;;;;;;;;28.00;26.50;;;;;19.46;49.67;100547.09;5138217;27;8859;-64
2022/05/07 08:25:36;;;;;;;;;20.75;16.50;;;;;19.56;49.72;100542.38;5138516;27;8851;-64
2022/05/07 08:28:04;;;;;;;;;27.25;24.25;;;;;19.66;49.54;100553.06;5137693;27;8844;-65
2022/05/07 08:30:32;;;;;;;;;22.80;22.60;;;;;19.74;49.06;100545.81;5138079;27;8923;-64
2022/05/07 08:32:59;;;;;;;;;22.80;19.00;;;;;19.85;49.52;100548.19;5138434;27;8826;-64
2022/05/07 08:35:27;;;;;;;;;22.20;20.80;;;;;20.00;49.49;100540.25;5137725;27;8981;-64
2022/05/07 08:37:55;;;;;;;;;22.60;22.20;;;;;20.14;49.17;100548.59;5137529;27;8864;-65
2022/05/07 08:40:23;;;;;;;;;23.80;21.20;;;;;20.27;48.52;100543.56;5138186;27;8851;-64
2022/05/07 08:42:50;;;;;;;;;23.40;20.40;;;;;20.40;48.50;100549.28;5137724;27;8827;-64
2022/05/07 08:45:18;;;;;;;;;27.00;23.40;;;;;20.53;48.34;100544.19;5124495;27;8835;-64
2022/05/07 08:47:47;;;;;;;;;15.00;12.60;;;;;20.65;48.25;100548.25;5116643;28;8847;-64
2022/05/07 08:50:16;;;;;;;;;27.20;23.80;;;;;20.78;47.94;100551.25;5116437;28;8847;-65
2022/05/07 08:52:43;;;;;;;;;5.00;5.00;;;;;20.93;47.80;100545.00;5116264;28;9899;-67
2022/05/07 08:55:11;;;;;;;;;21.60;17.80;;;;;21.12;47.48;100554.59;5116160;28;8837;-64
2022/05/07 08:57:40;;;;;;;;;24.20;21.20;;;;;21.21;47.35;100549.00;5115213;28;8992;-64
2022/05/07 09:00:08;;;;;;;;;20.20;19.80;;;;;21.33;46.88;100546.75;5114796;28;8837;-64
2022/05/07 09:02:36;;;;;;;;;20.80;19.20;;;;;21.46;47.00;100545.16;5114924;28;8875;-64
2022/05/07 09:05:05;;;;;;;;;18.80;18.00;;;;;21.58;46.49;100538.31;5114854;28;8851;-64
2022/05/07 09:07:33;;;;;;;;;15.00;14.40;;;;;21.69;46.57;100546.06;5114981;28;9932;-64
2022/05/07 09:10:01;;;;;;;;;19.80;18.60;;;;;21.83;46.28;100534.47;5114723;28;8826;-64
2022/05/07 09:12:29;;;;;;;;;23.20;20.80;;;;;22.00;46.22;100532.50;5115508;28;8863;-64
2022/05/07 09:14:57;;;;;;;;;16.60;15.60;;;;;22.22;45.49;100542.47;5123074;27;8815;-64
2022/05/07 09:17:25;;;;;;;;;21.60;18.60;;;;;22.36;45.83;100531.69;5136432;27;8846;-63
2022/05/07 09:19:53;;;;;;;;;19.40;16.60;;;;;22.47;45.25;100536.69;5135649;27;8854;-64
2022/05/07 09:22:20;;;;;;;;;20.00;18.60;;;;;22.64;44.84;100531.97;5134942;27;8834;-64
2022/05/07 09:24:48;;;;;;;;;20.00;19.00;;;;;22.79;44.87;100530.97;5134746;27;9508;-64
2022/05/07 09:27:16;;;;;;;;;24.40;22.60;;;;;22.93;44.79;100532.00;5135717;27;8815;-64
2022/05/07 09:29:44;;;;;;;;;27.40;20.60;;;;;23.04;44.53;100531.53;5136136;27;8854;-69
2022/05/07 09:32:13;;;;;;;;;19.80;17.80;;;;;23.14;44.70;100532.94;5136907;27;8846;-65
2022/05/07 09:37:26;;;;;;;;;25.00;24.60;;;;;23.39;43.73;100514.47;5136903;27;8861;-64
2022/05/07 09:39:54;;;;;;;;;26.80;24.80;;;;;23.54;43.81;100521.59;5117317;27;8841;-64
2022/05/07 09:42:23;;;;;;;;;24.20;22.80;;;;;23.76;43.42;100519.75;5115783;28;8999;-64
2022/05/07 09:44:52;;;;;;;;;26.60;23.40;;;;;24.11;43.18;100511.56;5115488;28;8833;-64
2022/05/07 09:47:20;;;;;;;;;32.00;30.20;;;;;24.56;42.38;100524.78;5116262;28;8842;-64
2022/05/07 09:52:33;;;;;;;;;29.20;25.80;;;;;25.29;40.89;100521.53;5114255;28;8849;-64
2022/05/07 09:57:46;;;;;;;;;23.40;19.20;;;;;25.84;40.56;100514.81;5115558;28;8884;-64
2022/05/07 10:00:14;;;;;;;;;28.80;24.20;;;;;26.24;39.97;100510.28;5115134;28;8957;-64
2022/05/07 10:02:42;;;;;;;;;24.40;22.80;;;;;26.70;39.45;100505.72;5114668;28;8833;-64
2022/05/07 10:05:10;;;;;;;;;33.00;29.00;;;;;27.20;39.09;100510.47;5114766;28;8918;-65
2022/05/07 10:07:38;;;;;;;;;31.20;26.80;;;;;27.52;38.47;100504.88;5115624;28;8810;-65
2022/05/07 10:10:06;;;;;;;;;28.60;27.00;;;;;27.69;38.31;100508.78;5115044;28;8841;-64
2022/05/07 10:12:33;;;;;;;;;32.00;28.60;;;;;27.95;38.36;100505.09;5114887;28;8849;-65
2022/05/07 10:15:03;;;;;;;;;33.80;29.00;;;;;28.15;38.01;100506.66;5114638;28;9569;-64
2022/05/07 10:17:31;;;;;;;;;36.40;32.20;;;;;28.36;37.85;100502.75;5114391;28;8855;-65
2022/05/07 10:19:58;;;;;;;;;32.40;31.40;;;;;27.91;38.13;100498.41;5115023;28;8844;-65
2022/05/07 10:22:27;;;;;;;;;34.40;30.00;;;;;27.12;39.15;100507.94;5113521;28;8992;-65
2022/05/07 10:25:00;;;;;;;;;33.20;28.40;;;;;26.33;40.89;100507.16;5113398;28;8995;-64
2022/05/07 10:27:28;;;;;;;;;26.00;24.00;;;;;25.71;41.92;100512.06;5114736;28;8825;-64
2022/05/07 10:29:56;;;;;;;;;25.40;22.40;;;;;25.13;42.35;100509.03;5115408;28;8853;-64
2022/05/07 10:32:24;;;;;;;;;27.80;24.60;;;;;24.54;43.69;100510.50;5113948;28;8856;-65
2022/05/07 10:34:53;;;;;;;;;28.40;26.20;;;;;24.08;44.20;100517.41;5113439;28;8987;-64
2022/05/07 10:37:21;;;;;;;;;16.00;16.00;;;;;23.63;44.76;100512.28;5114959;27;8864;-65
2022/05/07 10:39:49;;;;;;;;;28.00;25.60;;;;;23.26;45.47;100517.88;5133830;27;8835;-64
2022/05/07 10:42:17;;;;;;;;;23.40;22.80;;;;;23.01;45.37;100521.03;5135656;27;8849;-65
2022/05/07 10:44:45;;;;;;;;;22.00;21.00;;;;;22.80;46.02;100516.34;5134946;27;8953;-64
2022/05/07 10:47:13;;;;;;;;;19.80;19.20;;;;;22.63;46.40;100527.56;5135574;27;8927;-65
2022/05/07 10:49:41;;;;;;;;;30.00;27.80;;;;;22.56;46.11;100513.03;5134585;27;8834;-65
2022/05/07 10:52:08;;;;;;;;;34.80;27.80;;;;;22.49;46.33;100507.50;5133358;27;8989;-65
2022/05/07 10:54:36;;;;;;;;;30.00;26.20;;;;;22.44;46.06;100514.50;5134783;27;8969;-65
2022/05/07 10:57:04;;;;;;;;;31.20;29.20;;;;;22.39;46.10;100508.75;5135102;27;9484;-64
2022/05/07 10:59:33;;;;;;;;;24.20;20.60;;;;;22.31;46.17;100508.84;5134343;27;8959;-65
2022/05/07 11:02:00;;;;;;;;;23.00;21.40;;;;;22.25;46.48;100510.38;5133365;27;8830;-64
2022/05/07 11:04:28;;;;;;;;;31.60;26.80;;;;;22.20;45.98;100511.97;5134780;27;8837;-65
2022/05/07 11:06:56;;;;;;;;;30.80;27.40;;;;;22.12;46.06;100512.03;5120158;28;8832;-65
2022/05/07 11:09:24;;;;;;;;;22.80;21.80;;;;;22.09;46.06;100510.53;5114506;28;9487;-62
2022/05/07 11:11:54;;;;;;;;;26.40;25.60;;;;;22.09;46.23;100510.53;5113974;28;8841;-63
2022/05/07 11:14:23;;;;;;;;;17.80;16.20;;;;;22.14;46.42;100505.41;5114195;28;8863;-65
2022/05/07 11:16:51;;;;;;;;;30.00;26.60;;;;;22.21;45.73;100508.22;5113327;28;8913;-63
2022/05/07 11:19:19;;;;;;;;;23.20;22.20;;;;;22.34;45.81;100503.03;5114144;28;8872;-62
2022/05/07 11:21:47;;;;;;;;;27.40;23.40;;;;;22.49;44.94;100495.78;5114120;28;8875;-63
2022/05/07 11:24:14;;;;;;;;;23.60;20.80;;;;;22.55;44.92;100503.22;5113957;28;8887;-63
2022/05/07 11:26:42;;;;;;;;;31.20;29.60;;;;;22.59;45.18;100509.94;5113871;28;8829;-63
2022/05/07 11:29:10;;;;;;;;;22.20;19.40;;;;;22.53;45.13;100503.38;5114801;28;8859;-62
2022/05/07 11:31:38;;;;;;;;;31.60;28.80;;;;;22.41;45.36;100512.13;5113868;28;8922;-62
2022/05/07 11:34:06;;;;;;;;;29.00;27.80;;;;;22.29;45.45;100508.16;5114632;28;9526;-64
2022/05/07 11:36:35;;;;;;;;;35.40;29.00;;;;;22.17;45.64;100507.75;5124387;27;8822;-64
2022/05/07 11:39:02;;;;;;;;;34.20;34.20;;;;;22.07;46.07;100512.59;5133898;27;8965;-65
2022/05/07 11:41:30;;;;;;;;;34.00;33.80;;;;;21.99;45.75;100509.06;5133939;27;8831;-64
2022/05/07 11:47:00;;;;;;;;;32.00;30.60;;;;;21.96;45.97;100504.88;5134026;27;8847;-62
2022/05/07 11:49:28;;;;;;;;;29.20;27.80;;;;;22.00;45.69;100499.94;5137449;27;9787;-62